createdAt,value
2017-07-23T00:00:15.354Z,70.72
2017-07-23T00:00:55.892Z,71
2017-07-23T00:01:36.341Z,70.62
2017-07-23T00:02:16.806Z,70.42
2017-07-23T00:02:57.255Z,70.62
2017-07-23T00:03:37.743Z,70.42
2017-07-23T00:04:18.201Z,71
2017-07-23T00:04:58.741Z,71
2017-07-23T00:05:39.167Z,71
2017-07-23T00:06:19.617Z,70.9
2017-07-23T00:07:00.104Z,71.2
2017-07-23T00:07:40.569Z,71.3
2017-07-23T00:08:20.944Z,71.2
2017-07-23T00:09:01.446Z,71
2017-07-23T00:09:41.832Z,71.68
2017-07-23T00:10:22.289Z,71.68
2017-07-23T00:11:02.763Z,71.78
2017-07-23T00:11:43.201Z,71.58
2017-07-23T00:12:23.664Z,71.84
2017-07-23T00:13:04.116Z,71.88
2017-07-23T00:13:44.600Z,71.58
2017-07-23T00:14:25.071Z,71.58
2017-07-23T00:15:05.579Z,72.06
2017-07-23T00:15:46.030Z,71.88
2017-07-23T00:16:26.521Z,71.48
2017-07-23T00:17:06.957Z,71.58
2017-07-23T00:17:47.406Z,71.2
2017-07-23T00:18:27.869Z,71.45
2017-07-23T00:19:08.336Z,72.03
2017-07-23T00:19:48.851Z,71.55
2017-07-23T00:20:29.398Z,71.45
2017-07-23T00:21:09.740Z,71.78
2017-07-23T00:21:50.192Z,71.55
2017-07-23T00:22:30.661Z,71.84
2017-07-23T00:23:11.101Z,72.13
2017-07-23T00:23:51.567Z,71.84
2017-07-23T00:24:32.066Z,71.64
2017-07-23T00:25:12.483Z,72.52
2017-07-23T00:25:52.969Z,72.03
2017-07-23T00:26:33.382Z,71.94
2017-07-23T00:27:13.840Z,72.03
2017-07-23T00:29:11.462Z,71.74
2017-07-23T00:29:51.899Z,72.13
2017-07-23T00:30:32.404Z,72.13
2017-07-23T00:31:12.900Z,72.13
2017-07-23T00:31:53.310Z,71.94
2017-07-23T00:32:33.780Z,71.94
2017-07-23T00:33:14.192Z,71.94
2017-07-23T00:33:54.628Z,71.94
2017-07-23T00:34:35.079Z,71.55
2017-07-23T00:35:15.585Z,71.84
2017-07-23T00:35:56.013Z,71.74
2017-07-23T00:36:36.460Z,71.94
2017-07-23T00:37:16.917Z,72.22
2017-07-23T00:37:57.372Z,72.13
2017-07-23T00:38:37.802Z,71.84
2017-07-23T00:39:18.243Z,72.42
2017-07-23T00:39:58.703Z,72.22
2017-07-23T00:40:39.127Z,71.94
2017-07-23T00:42:26.676Z,72.22
2017-07-23T00:43:07.086Z,72.19
2017-07-23T00:44:59.669Z,72.48
2017-07-23T00:45:40.135Z,72.19
2017-07-23T00:46:20.601Z,72.28
2017-07-23T00:47:02.047Z,72.38
2017-07-23T00:47:42.528Z,72.86
2017-07-23T00:48:22.980Z,73.06
2017-07-23T00:49:03.448Z,72.77
2017-07-23T00:49:43.919Z,72.58
2017-07-23T00:50:24.372Z,72.58
2017-07-23T00:51:04.814Z,72.19
2017-07-23T00:53:02.475Z,72.86
2017-07-23T00:53:42.885Z,72.28
2017-07-23T00:54:23.338Z,72.48
2017-07-23T00:56:37.056Z,72.28
2017-07-23T00:57:17.417Z,72
2017-07-23T00:57:57.896Z,72.09
2017-07-23T00:58:38.299Z,72.09
2017-07-23T00:59:18.762Z,72.19
2017-07-23T00:59:59.205Z,72.58
2017-07-23T01:00:39.664Z,72.96
2017-07-23T01:01:20.098Z,72.38
2017-07-23T01:02:00.545Z,72.38
2017-07-23T01:02:40.983Z,72.38
2017-07-23T01:03:21.427Z,72.67
2017-07-23T01:04:01.876Z,72.67
2017-07-23T01:04:42.306Z,72.86
2017-07-23T01:05:22.751Z,73.06
2017-07-23T01:06:03.222Z,72.73
2017-07-23T01:06:43.742Z,72.73
2017-07-23T01:07:24.199Z,72.54
2017-07-23T01:08:04.649Z,72.83
2017-07-23T01:08:45.135Z,72.92
2017-07-23T01:10:42.819Z,72.73
2017-07-23T01:11:23.237Z,72.92
2017-07-23T01:12:03.742Z,73.02
2017-07-23T01:12:44.747Z,72.83
2017-07-23T01:13:25.199Z,73.02
2017-07-23T01:14:05.625Z,73.11
2017-07-23T01:14:46.096Z,73.21
2017-07-23T01:15:26.536Z,73.02
2017-07-23T01:16:06.997Z,73.6
2017-07-23T01:16:47.453Z,73.5
2017-07-23T01:17:27.922Z,73.11
2017-07-23T01:18:09.041Z,73.6
2017-07-23T01:18:49.517Z,73.89
2017-07-23T01:19:29.994Z,73.79
2017-07-23T01:20:10.454Z,73.79
2017-07-23T01:20:51.546Z,74.37
2017-07-23T01:21:32.973Z,74.37
2017-07-23T01:22:13.463Z,74.18
2017-07-23T01:22:53.908Z,74.47
2017-07-23T01:25:06.647Z,73.69
2017-07-23T01:25:47.082Z,73.99
2017-07-23T01:27:59.852Z,73.69
2017-07-23T01:28:40.268Z,73.21
2017-07-23T01:30:28.074Z,73.31
2017-07-23T01:31:08.561Z,73.31
2017-07-23T01:31:49.018Z,73.21
2017-07-23T01:32:29.479Z,73.41
2017-07-23T01:33:09.909Z,73.5
2017-07-23T01:35:02.477Z,73.35
2017-07-23T01:35:43.420Z,73.11
2017-07-23T01:36:23.906Z,73.41
2017-07-23T01:37:04.369Z,73.6
2017-07-23T01:37:44.865Z,73.35
2017-07-23T01:39:42.472Z,73.79
2017-07-23T01:40:22.940Z,73.89
2017-07-23T01:41:03.421Z,73.79
2017-07-23T01:41:43.848Z,73.6
2017-07-23T01:42:24.314Z,73.6
2017-07-23T01:43:04.768Z,73.5
2017-07-23T01:43:45.220Z,73.99
2017-07-23T01:44:25.654Z,73.6
2017-07-23T01:45:06.090Z,73.99
2017-07-23T01:45:46.552Z,74.57
2017-07-23T01:46:27.072Z,74.37
2017-07-23T01:47:07.504Z,74.37
2017-07-23T01:49:05.180Z,74.85
2017-07-23T01:49:46.560Z,74.66
2017-07-23T01:50:26.994Z,74.47
2017-07-23T01:51:07.443Z,74.66
2017-07-23T01:51:47.881Z,74.27
2017-07-23T01:52:28.316Z,74.27
2017-07-23T01:53:08.755Z,74.18
2017-07-23T01:55:01.643Z,74.37
2017-07-23T01:55:42.090Z,74.27
2017-07-23T01:56:22.593Z,74.85
2017-07-23T01:57:03.104Z,74.47
2017-07-23T01:57:43.627Z,74.27
2017-07-23T01:58:24.022Z,74.18
2017-07-23T01:59:04.484Z,74.37
2017-07-23T01:59:44.948Z,74.37
2017-07-23T02:00:25.408Z,74.27
2017-07-23T02:01:05.897Z,74.18
2017-07-23T02:01:46.364Z,74.18
2017-07-23T02:02:26.818Z,74.85
2017-07-23T02:03:07.274Z,74.18
2017-07-23T02:03:47.731Z,74.95
2017-07-23T02:04:28.175Z,74.95
2017-07-23T02:05:08.648Z,74.95
2017-07-23T02:05:49.108Z,74.37
2017-07-23T02:06:29.560Z,74.76
2017-07-23T02:07:09.995Z,74.85
2017-07-23T02:07:50.472Z,74.95
2017-07-23T02:08:30.942Z,74.85
2017-07-23T02:09:11.363Z,74.76
2017-07-23T02:09:51.849Z,74.76
2017-07-23T02:10:32.302Z,74.95
2017-07-23T02:11:12.756Z,74.95
2017-07-23T02:11:53.220Z,74.76
2017-07-23T02:12:33.675Z,74.66
2017-07-23T02:13:14.142Z,74.66
2017-07-23T02:13:54.611Z,75.43
2017-07-23T02:14:35.063Z,75.92
2017-07-23T02:16:32.735Z,77.36
2017-07-23T02:17:13.177Z,76.65
2017-07-23T02:17:53.626Z,77.13
2017-07-23T02:18:34.085Z,77.51
2017-07-23T02:19:14.531Z,77.42
2017-07-23T02:19:54.998Z,77.42
2017-07-23T02:20:35.462Z,77.51
2017-07-23T02:21:15.942Z,77.42
2017-07-23T02:21:56.373Z,77.42
2017-07-23T02:22:36.853Z,77.42
2017-07-23T02:23:17.317Z,77.23
2017-07-23T02:23:57.782Z,77.61
2017-07-23T02:24:38.260Z,77.51
2017-07-23T02:25:18.711Z,77.58
2017-07-23T02:25:59.170Z,78.19
2017-07-23T02:26:39.638Z,78.96
2017-07-23T02:27:20.073Z,79.6
2017-07-23T02:28:00.545Z,80.66
2017-07-23T02:28:41.013Z,80.66
2017-07-23T02:30:53.728Z,83.31
2017-07-23T02:31:35.189Z,82.83
2017-07-23T02:32:15.663Z,83.61
2017-07-23T02:32:56.138Z,84.66
2017-07-23T02:33:36.633Z,87.22
2017-07-23T02:34:17.106Z,86.26
2017-07-23T02:36:29.847Z,85.49
2017-07-23T02:37:10.302Z,85.93
2017-07-23T02:37:51.525Z,87.66
2017-07-23T02:38:31.989Z,87.08
2017-07-23T02:39:12.464Z,87.27
2017-07-23T02:39:52.893Z,88.33
2017-07-23T02:41:50.538Z,87.56
2017-07-23T02:42:31.029Z,87.85
2017-07-23T02:43:11.491Z,88.29
2017-07-23T02:43:51.988Z,88.91
2017-07-23T02:44:32.467Z,88.24
2017-07-23T02:45:12.958Z,87.66
2017-07-23T02:45:53.449Z,87.76
2017-07-23T02:46:33.945Z,87.66
2017-07-23T02:48:46.667Z,87.23
2017-07-23T02:49:27.118Z,88.96
2017-07-23T02:50:07.611Z,88.48
2017-07-23T02:50:48.139Z,88.29
2017-07-23T02:51:28.607Z,88.19
2017-07-23T02:52:09.096Z,87.71
2017-07-23T02:52:49.530Z,88.19
2017-07-23T02:53:30.000Z,88.77
2017-07-23T02:54:10.452Z,87.67
2017-07-23T02:54:50.934Z,88.15
2017-07-23T02:55:31.378Z,87.76
2017-07-23T02:56:11.838Z,87.57
2017-07-23T02:56:52.943Z,88.24
2017-07-23T02:58:40.640Z,87.96
2017-07-23T02:59:21.040Z,87.96
2017-07-23T03:00:01.482Z,88.15
2017-07-23T03:00:41.978Z,88.01
2017-07-23T03:01:22.437Z,87.53
2017-07-23T03:02:02.881Z,87.57
2017-07-23T03:02:43.341Z,87.67
2017-07-23T03:03:23.810Z,87.24
2017-07-23T03:04:04.252Z,86.99
2017-07-23T03:04:44.727Z,87.96
2017-07-23T03:05:25.174Z,87.72
2017-07-23T03:07:17.778Z,87.43
2017-07-23T03:07:58.204Z,87.24
2017-07-23T03:08:38.679Z,87.92
2017-07-23T03:10:51.390Z,86.95
2017-07-23T03:11:31.818Z,87.92
2017-07-23T03:12:12.279Z,86.85
2017-07-23T03:12:52.707Z,86.76
2017-07-23T03:13:33.191Z,87.34
2017-07-23T03:15:30.918Z,87.24
2017-07-23T03:16:11.272Z,87.92
2017-07-23T03:16:51.728Z,87.62
2017-07-23T03:17:32.186Z,88.1
2017-07-23T03:18:12.650Z,88.01
2017-07-23T03:18:53.069Z,86.76
2017-07-23T03:19:33.470Z,87.15
2017-07-23T03:20:13.896Z,88.39
2017-07-23T03:20:54.374Z,87.34
2017-07-23T03:21:34.840Z,87.15
2017-07-23T03:22:15.290Z,88.3
2017-07-23T03:22:55.723Z,87.82
2017-07-23T03:23:36.204Z,87.34
2017-07-23T03:24:16.652Z,88.01
2017-07-23T03:24:57.126Z,87.24
2017-07-23T03:25:37.562Z,88.39
2017-07-23T03:26:18.022Z,87.82
2017-07-23T03:28:30.994Z,87.62
2017-07-23T03:29:11.397Z,87.82
2017-07-23T03:29:51.830Z,87.72
2017-07-23T03:30:32.315Z,87.62
2017-07-23T03:31:12.718Z,88.01
2017-07-23T03:31:53.181Z,87.82
2017-07-23T03:32:33.623Z,87.76
2017-07-23T03:33:14.627Z,87.72
2017-07-23T03:33:55.158Z,87.53
2017-07-23T03:34:35.529Z,87.82
2017-07-23T03:35:16.027Z,88.24
2017-07-23T03:35:56.461Z,88.53
2017-07-23T03:36:36.879Z,87.72
2017-07-23T03:38:49.634Z,87.67
2017-07-23T03:39:30.070Z,88.73
2017-07-23T03:40:10.540Z,88.1
2017-07-23T03:40:50.986Z,87.48
2017-07-23T03:41:31.452Z,87.82
2017-07-23T03:42:11.925Z,87.96
2017-07-23T03:42:52.379Z,87.86
2017-07-23T03:43:32.817Z,88.1
2017-07-23T03:44:13.281Z,88.24
2017-07-23T03:44:53.732Z,88.97
2017-07-23T03:45:34.188Z,88.34
2017-07-23T03:46:14.665Z,87.53
2017-07-23T03:46:55.112Z,88.24
2017-07-23T03:47:35.620Z,88.59
2017-07-23T03:48:16.056Z,87.72
2017-07-23T03:48:56.528Z,87.72
2017-07-23T03:49:36.959Z,87.82
2017-07-23T03:50:17.400Z,87.57
2017-07-23T03:50:57.823Z,89.11
2017-07-23T03:51:38.334Z,87.82
2017-07-23T03:52:18.775Z,88.34
2017-07-23T03:54:16.858Z,88.59
2017-07-23T03:54:57.270Z,87.86
2017-07-23T03:55:37.665Z,88.06
2017-07-23T03:57:25.769Z,87.96
2017-07-23T03:58:06.142Z,87.96
2017-07-23T03:58:46.613Z,87.86
2017-07-23T03:59:27.038Z,88.53
2017-07-23T04:00:07.531Z,88.63
2017-07-23T04:00:47.967Z,87.76
2017-07-23T04:01:28.442Z,88.73
2017-07-23T04:02:08.897Z,88.34
2017-07-23T04:02:49.344Z,88.06
2017-07-23T04:03:29.767Z,88.34
2017-07-23T04:04:10.261Z,88.06
2017-07-23T04:06:03.137Z,88.06
2017-07-23T04:06:43.575Z,88.73
2017-07-23T04:07:24.013Z,88.53
2017-07-23T04:08:04.449Z,88.44
2017-07-23T04:08:44.880Z,88.06
2017-07-23T04:11:02.783Z,88.44
2017-07-23T04:11:43.148Z,87.38
2017-07-23T04:12:23.622Z,88.24
2017-07-23T04:13:04.104Z,87.96
2017-07-23T04:13:44.578Z,88.44
2017-07-23T04:14:25.021Z,87.67
2017-07-23T04:15:05.463Z,87.96
2017-07-23T04:15:45.956Z,88.24
2017-07-23T04:16:26.402Z,88.53
2017-07-23T04:17:06.819Z,89.01
2017-07-23T04:17:47.311Z,88.24
2017-07-23T04:18:27.736Z,88.92
2017-07-23T04:19:08.194Z,87.96
2017-07-23T04:19:48.653Z,88.06
2017-07-23T04:20:29.111Z,88.06
2017-07-23T04:21:09.569Z,88.24
2017-07-23T04:21:49.974Z,88.34
2017-07-23T04:22:30.472Z,88.53
2017-07-23T04:23:10.884Z,88.44
2017-07-23T04:23:51.332Z,88.92
2017-07-23T04:24:31.789Z,88.34
2017-07-23T04:25:12.214Z,88.63
2017-07-23T04:25:52.703Z,88.15
2017-07-23T04:26:33.142Z,88.53
2017-07-23T04:27:13.604Z,88.53
2017-07-23T04:27:54.017Z,88.06
2017-07-23T04:29:51.666Z,88.34
2017-07-23T04:30:32.122Z,87.96
2017-07-23T04:31:12.573Z,88.34
2017-07-23T04:31:53.295Z,87.86
2017-07-23T04:32:33.741Z,88.92
2017-07-23T04:33:14.234Z,88.34
2017-07-23T04:33:54.671Z,89.11
2017-07-23T04:34:35.159Z,87.96
2017-07-23T04:35:15.542Z,89.01
2017-07-23T04:35:55.980Z,88.63
2017-07-23T04:36:36.439Z,88.44
2017-07-23T04:37:16.888Z,89.4
2017-07-23T04:37:57.369Z,88.53
2017-07-23T04:39:55.184Z,89.01
2017-07-23T04:40:35.470Z,88.63
2017-07-23T04:41:15.964Z,88.34
2017-07-23T04:41:56.415Z,88.92
2017-07-23T04:42:36.917Z,88.53
2017-07-23T04:43:17.353Z,88.24
2017-07-23T04:43:57.822Z,89.11
2017-07-23T04:44:38.286Z,89.3
2017-07-23T04:45:18.782Z,88.34
2017-07-23T04:45:59.797Z,88.92
2017-07-23T04:48:12.533Z,88.53
2017-07-23T04:48:52.981Z,88.82
2017-07-23T04:49:33.440Z,88.44
2017-07-23T04:50:13.888Z,88.73
2017-07-23T04:50:54.324Z,89.11
2017-07-23T04:52:51.990Z,88.44
2017-07-23T04:53:32.433Z,88.34
2017-07-23T04:54:12.932Z,88.63
2017-07-23T04:54:53.420Z,88.53
2017-07-23T04:55:33.873Z,88.24
2017-07-23T04:56:14.374Z,89.3
2017-07-23T04:56:54.837Z,88.34
2017-07-23T04:57:35.260Z,88.06
2017-07-23T04:58:15.709Z,88.24
2017-07-23T04:58:56.179Z,89.88
2017-07-23T04:59:36.603Z,87.9
2017-07-23T05:00:17.040Z,89.83
2017-07-23T05:00:57.500Z,87.67
2017-07-23T05:01:37.959Z,88.63
2017-07-23T05:02:18.401Z,89.11
2017-07-23T05:02:58.895Z,87.38
2017-07-23T05:03:39.311Z,88.53
2017-07-23T05:04:19.774Z,88.1
2017-07-23T05:05:00.183Z,87.76
2017-07-23T05:05:40.635Z,88.34
2017-07-23T05:07:58.534Z,87.86
2017-07-23T05:08:38.993Z,87.76
2017-07-23T05:09:19.467Z,88.82
2017-07-23T05:09:59.908Z,87.57
2017-07-23T05:10:40.415Z,88.44
2017-07-23T05:11:20.900Z,89.11
2017-07-23T05:12:01.419Z,87.9
2017-07-23T05:12:41.863Z,88.24
2017-07-23T05:13:22.320Z,87.19
2017-07-23T05:14:02.805Z,88.48
2017-07-23T05:16:00.448Z,87.62
2017-07-23T05:16:40.970Z,87.86
2017-07-23T05:17:21.421Z,88
2017-07-23T05:18:01.940Z,88.57
2017-07-23T05:18:42.325Z,87.71
2017-07-23T05:19:22.805Z,88
2017-07-23T05:20:03.232Z,87.62
2017-07-23T05:20:43.670Z,87.57
2017-07-23T05:21:24.122Z,87.96
2017-07-23T05:22:04.585Z,88.39
2017-07-23T05:22:45.039Z,87.76
2017-07-23T05:23:25.468Z,87.71
2017-07-23T05:24:05.964Z,87.76
2017-07-23T05:24:46.368Z,87.42
2017-07-23T05:25:26.863Z,87.67
2017-07-23T05:26:07.295Z,87.62
2017-07-23T05:26:47.740Z,87.62
2017-07-23T05:27:28.211Z,87.62
2017-07-23T05:28:08.676Z,87.71
2017-07-23T05:28:49.117Z,87.62
2017-07-23T05:31:01.875Z,86.41
2017-07-23T05:31:42.278Z,86.31
2017-07-23T05:32:22.740Z,85.31
2017-07-23T05:33:03.205Z,86.79
2017-07-23T05:33:43.653Z,85.54
2017-07-23T05:34:24.109Z,86.6
2017-07-23T05:35:04.565Z,86.22
2017-07-23T05:37:17.339Z,85.68
2017-07-23T05:37:57.731Z,84.62
2017-07-23T05:38:38.201Z,85.1
2017-07-23T05:39:18.622Z,84.72
2017-07-23T05:39:59.119Z,85.3
2017-07-23T05:41:51.675Z,84.05
2017-07-23T05:42:32.110Z,83.41
2017-07-23T05:43:12.606Z,83.56
2017-07-23T05:43:53.051Z,83.85
2017-07-23T05:44:33.556Z,83.28
2017-07-23T05:46:26.303Z,83.85
2017-07-23T05:47:06.595Z,83.89
2017-07-23T05:47:47.071Z,83.61
2017-07-23T05:48:27.517Z,82.74
2017-07-23T05:49:07.970Z,82.93
2017-07-23T05:49:48.432Z,82.83
2017-07-23T05:50:28.939Z,82.64
2017-07-23T05:51:09.451Z,82.93
2017-07-23T05:51:49.875Z,83.22
2017-07-23T05:52:30.317Z,83.8
2017-07-23T05:53:10.773Z,83.03
2017-07-23T05:53:51.248Z,82.31
2017-07-23T05:54:31.721Z,83.18
2017-07-23T05:55:12.175Z,83.85
2017-07-23T05:55:52.620Z,83.12
2017-07-23T05:56:33.119Z,82.98
2017-07-23T05:57:13.554Z,83.28
2017-07-23T05:57:54.017Z,83.28
2017-07-23T05:58:34.469Z,83.85
2017-07-23T05:59:14.944Z,83.56
2017-07-23T05:59:55.405Z,82.98
2017-07-23T06:00:35.860Z,83.08
2017-07-23T06:01:16.307Z,82.98
2017-07-23T06:01:56.827Z,83.85
2017-07-23T06:02:37.295Z,83.04
2017-07-23T06:03:17.707Z,83.42
2017-07-23T06:03:58.162Z,83.37
2017-07-23T06:04:38.619Z,82.94
2017-07-23T06:05:19.070Z,83.42
2017-07-23T06:05:59.548Z,83.18
2017-07-23T06:06:39.993Z,83.08
2017-07-23T06:07:20.437Z,82.37
2017-07-23T06:08:00.919Z,82.65
2017-07-23T06:08:41.400Z,83.33
2017-07-23T06:09:21.833Z,83.28
2017-07-23T06:10:02.329Z,83.14
2017-07-23T06:10:42.803Z,83.04
2017-07-23T06:11:23.343Z,83.28
2017-07-23T06:12:03.774Z,82.41
2017-07-23T06:14:16.532Z,82.5
2017-07-23T06:14:56.927Z,81.93
2017-07-23T06:17:14.756Z,81.06
2017-07-23T06:17:55.255Z,80.96
2017-07-23T06:18:35.686Z,81.25
2017-07-23T06:19:16.182Z,80.68
2017-07-23T06:19:56.611Z,80.91
2017-07-23T06:20:37.065Z,79.94
2017-07-23T06:21:17.544Z,78.88
2017-07-23T06:21:57.974Z,79.08
2017-07-23T06:22:38.434Z,78.69
2017-07-23T06:23:18.861Z,78.79
2017-07-23T06:23:59.357Z,79.36
2017-07-23T06:24:39.845Z,79.08
2017-07-23T06:25:20.278Z,78.59
2017-07-23T06:26:00.745Z,78.08
2017-07-23T06:26:41.202Z,78.59
2017-07-23T06:27:21.672Z,79.17
2017-07-23T06:28:02.142Z,78.02
2017-07-23T06:28:42.568Z,77.73
2017-07-23T06:29:23.062Z,78.21
2017-07-23T06:30:03.550Z,77.58
2017-07-23T06:30:43.992Z,77.73
2017-07-23T06:31:24.507Z,78.34
2017-07-23T06:32:04.975Z,76.76
2017-07-23T06:32:46.011Z,77.73
2017-07-23T06:34:43.970Z,78.11
2017-07-23T06:35:24.501Z,77.73
2017-07-23T06:36:04.946Z,78.31
2017-07-23T06:36:45.386Z,78.69
2017-07-23T06:37:25.852Z,78.4
2017-07-23T06:38:06.303Z,77.92
2017-07-23T06:38:46.718Z,77.48
2017-07-23T06:39:27.273Z,77.15
2017-07-23T06:40:07.674Z,77.15
2017-07-23T06:42:05.386Z,76.32
2017-07-23T06:42:45.808Z,75.65
2017-07-23T06:43:26.206Z,76.07
2017-07-23T06:44:06.642Z,75.84
2017-07-23T06:44:47.080Z,75.45
2017-07-23T06:45:27.545Z,75.36
2017-07-23T06:46:07.969Z,75.55
2017-07-23T06:46:48.445Z,74.88
2017-07-23T06:47:28.875Z,74.88
2017-07-23T06:48:09.380Z,74.3
2017-07-23T06:50:22.795Z,74.88
2017-07-23T06:51:03.163Z,74.78
2017-07-23T06:51:43.636Z,74.97
2017-07-23T06:53:31.457Z,74.68
2017-07-23T06:54:11.856Z,74.33
2017-07-23T06:54:52.314Z,73.75
2017-07-23T06:55:33.326Z,73.91
2017-07-23T06:56:14.426Z,74.3
2017-07-23T06:56:54.874Z,74.3
2017-07-23T06:58:52.558Z,73.85
2017-07-23T06:59:33.020Z,73.08
2017-07-23T07:00:13.495Z,73.57
2017-07-23T07:02:06.094Z,72.69
2017-07-23T07:02:46.490Z,73.08
2017-07-23T07:03:26.917Z,72.79
2017-07-23T07:04:07.343Z,72.41
2017-07-23T07:04:47.805Z,72.31
2017-07-23T07:06:19.491Z,72.08
2017-07-23T07:06:59.948Z,72.41
2017-07-23T07:08:57.610Z,71.19
2017-07-23T07:09:38.171Z,70.9
2017-07-23T07:10:18.643Z,70.64
2017-07-23T07:10:59.138Z,70.36
2017-07-23T07:11:39.714Z,69.97
2017-07-23T07:12:20.090Z,69.58
2017-07-23T07:13:00.600Z,68.81
2017-07-23T07:13:41.060Z,68.46
2017-07-23T07:15:59.590Z,67.4
2017-07-23T07:16:40.023Z,66.36
2017-07-23T07:17:20.511Z,66.75
2017-07-23T07:18:00.928Z,65.4
2017-07-23T07:18:41.390Z,65.66
2017-07-23T07:19:21.853Z,65.88
2017-07-23T07:20:02.321Z,65.05
2017-07-23T07:20:43.430Z,63.76
2017-07-23T07:21:23.851Z,62.43
2017-07-23T07:22:04.303Z,61.08
2017-07-23T07:22:44.760Z,61.76
2017-07-23T07:23:25.209Z,60.59
2017-07-23T07:24:05.674Z,61.08
2017-07-23T07:24:46.120Z,60.21
2017-07-23T07:25:26.623Z,60.24
2017-07-23T07:26:07.052Z,60.62
2017-07-23T07:26:47.490Z,60.3
2017-07-23T07:27:27.952Z,60.33
2017-07-23T07:28:09.259Z,60.33
2017-07-23T07:28:49.705Z,59.2
2017-07-23T07:29:30.199Z,58.72
2017-07-23T07:30:10.629Z,58.95
2017-07-23T07:30:51.076Z,59.66
2017-07-23T07:31:31.529Z,58.95
2017-07-23T07:32:12.026Z,59.33
2017-07-23T07:32:52.519Z,59.63
2017-07-23T07:33:32.952Z,59.66
2017-07-23T07:34:13.406Z,58.49
2017-07-23T07:34:53.846Z,59.14
2017-07-23T07:35:34.283Z,59.59
2017-07-23T07:37:47.065Z,59.79
2017-07-23T07:38:27.445Z,59.63
2017-07-23T07:39:07.910Z,58.59
2017-07-23T07:39:48.363Z,57.33
2017-07-23T07:40:28.803Z,58.01
2017-07-23T07:41:09.261Z,58.11
2017-07-23T07:41:49.720Z,57.62
2017-07-23T07:42:30.172Z,57.62
2017-07-23T07:43:11.200Z,57.65
2017-07-23T07:43:51.695Z,57.04
2017-07-23T07:45:49.391Z,58.65
2017-07-23T07:46:29.806Z,58.88
2017-07-23T07:47:10.244Z,58.88
2017-07-23T07:48:57.725Z,58.72
2017-07-23T07:49:38.235Z,59.11
2017-07-23T07:50:18.787Z,59.59
2017-07-23T07:50:59.208Z,60.08
2017-07-23T07:51:39.663Z,60.17
2017-07-23T07:52:20.137Z,59.59
2017-07-23T07:53:00.614Z,60.41
2017-07-23T07:53:41.097Z,60.67
2017-07-23T07:54:21.562Z,61.54
2017-07-23T07:55:02.014Z,61.83
2017-07-23T07:55:42.470Z,61.05
2017-07-23T07:57:35.052Z,59.73
2017-07-23T07:59:47.780Z,59.47
2017-07-23T08:00:28.276Z,59.01
2017-07-23T08:01:08.791Z,58.6
2017-07-23T08:01:49.255Z,58.7
2017-07-23T08:02:29.717Z,58.44
2017-07-23T08:03:10.166Z,57.82
2017-07-23T08:03:50.612Z,57.37
2017-07-23T08:04:31.057Z,56.34
2017-07-23T08:05:11.486Z,54.98
2017-07-23T08:05:51.954Z,54.81
2017-07-23T08:06:32.395Z,54.71
2017-07-23T08:07:12.835Z,55.27
2017-07-23T08:07:53.291Z,55.76
2017-07-23T08:08:33.750Z,55.1
2017-07-23T08:09:14.187Z,55.1
2017-07-23T08:09:54.633Z,55.32
2017-07-23T08:11:52.309Z,53.61
2017-07-23T08:12:32.708Z,53.22
2017-07-23T08:14:45.471Z,50.65
2017-07-23T08:15:25.908Z,51.28
2017-07-23T08:16:06.430Z,52.25
2017-07-23T08:16:46.870Z,52.22
2017-07-23T08:17:27.308Z,52.9
2017-07-23T08:18:07.758Z,52.32
2017-07-23T08:18:48.227Z,52.03
2017-07-23T08:19:28.743Z,52.22
2017-07-23T08:20:09.152Z,52.42
2017-07-23T08:20:49.599Z,52.54
2017-07-23T08:21:30.055Z,51.47
2017-07-23T08:22:10.511Z,51.96
2017-07-23T08:22:51.009Z,51.57
2017-07-23T08:23:31.420Z,52.03
2017-07-23T08:24:11.875Z,52.39
2017-07-23T08:24:52.330Z,53.07
2017-07-23T08:25:32.768Z,52.97
2017-07-23T08:27:25.339Z,52.85
2017-07-23T08:28:05.799Z,52.92
2017-07-23T08:28:46.236Z,53.43
2017-07-23T08:29:26.694Z,52.95
2017-07-23T08:30:08.114Z,53.33
2017-07-23T08:32:20.897Z,51.81
2017-07-23T08:33:01.373Z,52
2017-07-23T08:33:41.849Z,51.42
2017-07-23T08:34:22.315Z,51.98
2017-07-23T08:35:02.804Z,51.78
2017-07-23T08:35:43.276Z,52.89
2017-07-23T08:36:23.750Z,53.57
2017-07-23T08:37:04.254Z,53.77
2017-07-23T08:37:44.730Z,53.38
2017-07-23T08:38:25.203Z,53.69
2017-07-23T08:39:05.727Z,53.47
2017-07-23T08:39:46.198Z,54.25
2017-07-23T08:40:26.703Z,54.17
2017-07-23T08:42:24.378Z,54.35
2017-07-23T08:43:04.799Z,53.77
2017-07-23T08:43:45.285Z,53.64
2017-07-23T08:44:26.348Z,54.19
2017-07-23T08:45:06.819Z,54.71
2017-07-23T08:45:47.283Z,54.8
2017-07-23T08:46:27.736Z,54.71
2017-07-23T08:48:45.595Z,54.05
2017-07-23T08:49:26.056Z,53.57
2017-07-23T08:50:06.511Z,53.45
2017-07-23T08:50:47.006Z,53.93
2017-07-23T08:51:27.429Z,54.44
2017-07-23T08:52:07.914Z,54.05
2017-07-23T08:52:48.399Z,53.5
2017-07-23T08:53:28.920Z,52.73
2017-07-23T08:54:09.379Z,52.53
2017-07-23T08:54:49.881Z,52.14
2017-07-23T08:55:30.333Z,51.86
2017-07-23T08:56:10.788Z,52.92
2017-07-23T08:56:51.201Z,52.1
2017-07-23T08:57:31.645Z,50.77
2017-07-23T08:58:12.094Z,50.48
2017-07-23T08:58:52.531Z,48.95
2017-07-23T09:00:50.228Z,48.27
2017-07-23T09:01:30.673Z,47.79
2017-07-23T09:02:11.140Z,47.11
2017-07-23T09:02:51.584Z,47.6
2017-07-23T09:03:32.053Z,47.3
2017-07-23T09:04:13.206Z,48.08
2017-07-23T09:04:53.667Z,48.13
2017-07-23T09:07:11.481Z,48.42
2017-07-23T09:07:51.929Z,49.1
2017-07-23T09:08:32.425Z,49.77
2017-07-23T09:09:12.862Z,49.39
2017-07-23T09:09:53.297Z,48.97
2017-07-23T09:10:34.465Z,49.27
2017-07-23T09:11:14.942Z,49.56
2017-07-23T09:11:55.389Z,49.56
2017-07-23T09:12:35.860Z,49.46
2017-07-23T09:13:16.318Z,50.21
2017-07-23T09:13:56.770Z,51.06
2017-07-23T09:14:37.226Z,51.15
2017-07-23T09:16:29.829Z,51.37
2017-07-23T09:17:10.264Z,52
2017-07-23T09:17:50.698Z,52.94
2017-07-23T09:19:43.569Z,53.16
2017-07-23T09:20:24.040Z,52.87
2017-07-23T09:21:04.510Z,53.81
2017-07-23T09:21:44.975Z,53.06
2017-07-23T09:22:25.449Z,53.64
2017-07-23T09:23:05.960Z,53.64
2017-07-23T09:25:23.816Z,52.31
2017-07-23T09:26:04.214Z,52.22
2017-07-23T09:26:45.508Z,51.93
2017-07-23T09:27:25.956Z,52.02
2017-07-23T09:29:43.787Z,51.32
2017-07-23T09:30:24.229Z,51.42
2017-07-23T09:31:04.679Z,51.42
2017-07-23T09:31:45.136Z,51.1
2017-07-23T09:32:25.595Z,51.78
2017-07-23T09:33:06.028Z,51.9
2017-07-23T09:33:46.502Z,51.32
2017-07-23T09:34:26.955Z,51.32
2017-07-23T09:35:07.419Z,51.81
2017-07-23T09:35:47.905Z,51.32
2017-07-23T09:36:28.352Z,51.08
2017-07-23T09:37:08.795Z,49.27
2017-07-23T09:37:49.270Z,47.02
2017-07-23T09:39:47.620Z,40.29
2017-07-23T09:40:28.027Z,38.77
2017-07-23T09:41:08.517Z,38.2
2017-07-23T09:41:48.979Z,37.6
2017-07-23T09:44:01.731Z,38.09
2017-07-23T09:46:19.505Z,38.73
2017-07-23T09:48:17.237Z,36.84
2017-07-23T09:48:57.719Z,35.88
2017-07-23T09:49:38.219Z,35.38
2017-07-23T09:50:18.653Z,34.45
2017-07-23T09:50:59.118Z,33.98
2017-07-23T09:51:39.566Z,32.55
2017-07-23T09:52:20.055Z,32.53
2017-07-23T09:53:00.496Z,32.63
2017-07-23T09:53:40.936Z,32.65
2017-07-23T09:54:21.405Z,32.84
2017-07-23T09:55:01.847Z,32.24
2017-07-23T09:55:42.295Z,31.29
2017-07-23T09:57:55.562Z,32.23
2017-07-23T09:58:36.014Z,32.4
2017-07-23T09:59:16.451Z,31.85
2017-07-23T09:59:56.897Z,31.07
2017-07-23T10:00:37.321Z,31.15
2017-07-23T10:01:17.780Z,32.4
2017-07-23T10:01:58.216Z,32.31
2017-07-23T10:02:38.681Z,33.62
2017-07-23T10:03:19.137Z,33.8
2017-07-23T10:03:59.605Z,35.58
2017-07-23T10:04:40.058Z,36.65
2017-07-23T10:05:20.546Z,37.04
2017-07-23T10:06:01.008Z,36.96
2017-07-23T10:06:41.434Z,36.63
2017-07-23T10:07:21.879Z,38.83
2017-07-23T10:08:02.347Z,39.04
2017-07-23T10:08:42.802Z,38.95
2017-07-23T10:09:23.267Z,39.55
2017-07-23T10:10:03.728Z,38.57
2017-07-23T10:10:44.174Z,38.67
2017-07-23T10:11:24.682Z,39.53
2017-07-23T10:12:05.143Z,40.58
2017-07-23T10:12:45.617Z,41.16
2017-07-23T10:13:26.089Z,40.01
2017-07-23T10:15:38.854Z,40.13
2017-07-23T10:16:19.229Z,39.22
2017-07-23T10:16:59.689Z,38.83
2017-07-23T10:17:40.169Z,39.7
2017-07-23T10:18:21.295Z,39.22
2017-07-23T10:19:02.326Z,39.12
2017-07-23T10:19:42.804Z,40.08
2017-07-23T10:20:23.272Z,39.88
2017-07-23T10:21:03.694Z,40.91
2017-07-23T10:23:01.381Z,42.9